createdAt,value
2019-05-09T00:01:54.259Z,17.70
2019-05-09T00:04:25.141Z,16.45
2019-05-09T00:06:55.995Z,16.95
2019-05-09T00:09:27.371Z,16.27
2019-05-09T00:11:58.323Z,16.67
2019-05-09T00:14:29.486Z,16.75
2019-05-09T00:17:00.427Z,16.65
2019-05-09T00:19:33.344Z,16.75
2019-05-09T00:22:04.080Z,16.80
2019-05-09T00:24:34.957Z,17.00
2019-05-09T00:27:06.016Z,15.85
2019-05-09T00:29:44.541Z,16.07
2019-05-09T00:32:23.901Z,16.15
2019-05-09T00:35:14.000Z,17.02
2019-05-09T00:37:57.815Z,18.00
2019-05-09T00:40:28.737Z,18.23
2019-05-09T00:42:59.823Z,19.87
2019-05-09T00:45:38.567Z,19.55
2019-05-09T00:48:10.634Z,18.67
2019-05-09T00:50:43.615Z,19.80
2019-05-09T00:53:13.914Z,18.30
2019-05-09T00:55:45.061Z,19.23
2019-05-09T00:58:16.025Z,19.37
2019-05-09T01:00:47.387Z,19.30
2019-05-09T01:03:18.343Z,19.57
2019-05-09T01:05:49.405Z,18.48
2019-05-09T01:08:20.362Z,19.10
2019-05-09T01:10:53.018Z,21.23
2019-05-09T01:13:24.120Z,20.23
2019-05-09T01:15:55.064Z,20.85
2019-05-09T01:18:26.139Z,19.98
2019-05-09T01:20:56.979Z,20.88
2019-05-09T01:23:28.041Z,21.30
2019-05-09T01:25:58.895Z,20.10
2019-05-09T01:28:29.872Z,21.52
2019-05-09T01:31:01.033Z,22.30
2019-05-09T01:33:36.388Z,21.30
2019-05-09T01:36:07.329Z,21.75
2019-05-09T01:38:38.291Z,22.37
2019-05-09T01:41:22.904Z,21.85
2019-05-09T01:43:44.134Z,22.10
2019-05-09T01:46:14.569Z,23.07
2019-05-09T01:48:45.497Z,22.25
2019-05-09T01:51:16.353Z,22.37
2019-05-09T01:53:48.746Z,22.62
2019-05-09T01:56:19.821Z,22.20
2019-05-09T01:58:50.762Z,22.35
2019-05-09T02:01:24.121Z,22.37
2019-05-09T02:03:54.316Z,20.97
2019-05-09T02:06:24.883Z,23.67
2019-05-09T02:08:55.945Z,22.90
2019-05-09T02:11:39.474Z,22.50
2019-05-09T02:13:59.190Z,22.50
2019-05-09T02:16:37.801Z,21.35
2019-05-09T02:19:13.713Z,21.35
2019-05-09T02:21:44.848Z,23.02
2019-05-09T02:24:15.811Z,24.27
2019-05-09T02:26:46.867Z,23.30
2019-05-09T02:29:17.809Z,24.43
2019-05-09T02:31:48.581Z,23.25
2019-05-09T02:34:19.626Z,24.95
2019-05-09T02:36:50.614Z,24.77
2019-05-09T02:39:21.645Z,26.62
2019-05-09T02:42:07.648Z,28.35
2019-05-09T02:44:25.010Z,29.27
2019-05-09T02:47:00.347Z,30.17
2019-05-09T02:49:31.308Z,30.88
2019-05-09T02:52:01.859Z,31.77
2019-05-09T02:54:32.736Z,30.88
2019-05-09T02:57:03.791Z,30.72
2019-05-09T02:59:38.639Z,31.10
2019-05-09T03:02:19.703Z,26.75
2019-05-09T03:04:50.881Z,29.15
2019-05-09T03:07:23.462Z,26.73
2019-05-09T03:09:54.433Z,27.35
2019-05-09T03:12:34.496Z,23.07
2019-05-09T03:14:58.702Z,22.00
2019-05-09T03:17:29.661Z,20.05
2019-05-09T03:20:00.627Z,20.48
2019-05-09T03:22:31.681Z,22.65
2019-05-09T03:25:02.315Z,21.00
2019-05-09T03:27:39.154Z,22.02
2019-05-09T03:30:14.668Z,21.85
2019-05-09T03:32:48.887Z,20.25
2019-05-09T03:35:18.437Z,21.42
2019-05-09T03:37:51.015Z,19.55
2019-05-09T03:40:21.975Z,22.80
2019-05-09T03:42:52.848Z,22.32
2019-05-09T03:45:23.906Z,23.40
2019-05-09T03:47:58.283Z,23.32
2019-05-09T03:50:28.891Z,25.08
2019-05-09T03:52:59.957Z,24.90
2019-05-09T03:55:32.430Z,25.65
2019-05-09T03:58:07.336Z,24.05
2019-05-09T04:00:37.595Z,24.18
2019-05-09T04:03:08.698Z,23.20
2019-05-09T04:05:39.656Z,23.07
2019-05-09T04:08:18.155Z,24.63
2019-05-09T04:10:50.610Z,23.85
2019-05-09T04:13:23.837Z,24.90
2019-05-09T04:15:54.941Z,26.40
2019-05-09T04:18:27.729Z,27.67
2019-05-09T04:20:58.497Z,29.63
2019-05-09T04:23:29.350Z,32.13
2019-05-09T04:26:04.915Z,33.35
2019-05-09T04:28:39.714Z,32.98
2019-05-09T04:31:09.182Z,33.38
2019-05-09T04:33:40.224Z,29.72
2019-05-09T04:36:11.203Z,23.35
2019-05-09T04:38:42.056Z,18.73
2019-05-09T04:41:16.414Z,18.37
2019-05-09T04:43:45.508Z,15.08
2019-05-09T04:46:20.739Z,13.60
2019-05-09T04:48:48.839Z,11.50
2019-05-09T04:51:19.814Z,12.00
2019-05-09T04:53:50.673Z,10.78
2019-05-09T04:56:27.869Z,10.30
2019-05-09T04:58:58.514Z,11.00
2019-05-09T05:01:40.115Z,11.43
2019-05-09T05:04:11.365Z,11.45
2019-05-09T05:06:42.348Z,11.83
2019-05-09T05:09:13.398Z,11.68
2019-05-09T05:11:46.571Z,10.30
2019-05-09T05:14:22.577Z,10.80
2019-05-09T05:16:55.590Z,11.75
2019-05-09T05:19:28.496Z,11.12
2019-05-09T05:22:01.367Z,12.50
2019-05-09T05:24:40.040Z,12.88
2019-05-09T05:27:10.972Z,13.80
2019-05-09T05:29:41.810Z,14.78
2019-05-09T05:32:14.423Z,14.63
2019-05-09T05:35:02.062Z,15.18
2019-05-09T05:37:32.907Z,14.58
2019-05-09T05:40:04.581Z,15.60
2019-05-09T05:42:38.554Z,14.80
2019-05-09T05:45:08.546Z,16.85
2019-05-09T05:47:58.842Z,16.10
2019-05-09T05:50:29.771Z,17.37
2019-05-09T05:53:00.748Z,15.53
2019-05-09T05:55:31.605Z,15.48
2019-05-09T05:58:02.752Z,16.10
2019-05-09T06:00:33.728Z,16.10
2019-05-09T06:03:04.995Z,14.78
2019-05-09T06:05:35.646Z,13.83
2019-05-09T06:08:08.398Z,12.90
2019-05-09T06:10:39.914Z,13.55
2019-05-09T06:13:11.278Z,9.20
2019-05-09T06:15:41.810Z,8.23
2019-05-09T06:18:12.891Z,7.70
2019-05-09T06:20:45.823Z,6.80
2019-05-09T06:23:17.607Z,5.50
2019-05-09T06:25:48.694Z,5.55
2019-05-09T06:28:19.674Z,5.25
2019-05-09T06:30:50.655Z,5.30
2019-05-09T06:33:21.792Z,4.00
2019-05-09T06:36:02.534Z,4.70
2019-05-09T06:38:34.857Z,4.50
2019-05-09T06:41:08.479Z,3.70
2019-05-09T06:43:44.641Z,2.90
2019-05-09T06:46:18.259Z,3.42
2019-05-09T06:48:49.035Z,2.45
2019-05-09T06:51:21.306Z,3.00
2019-05-09T06:53:52.080Z,3.40
2019-05-09T06:56:23.138Z,2.80
2019-05-09T06:58:54.096Z,3.30
2019-05-09T07:01:42.747Z,2.77
2019-05-09T07:04:18.400Z,2.80
2019-05-09T07:06:54.263Z,2.80
2019-05-09T07:09:29.535Z,2.90
2019-05-09T07:12:01.210Z,3.67
2019-05-09T07:14:41.317Z,3.60
2019-05-09T07:17:08.756Z,3.20
2019-05-09T07:19:43.537Z,3.27
2019-05-09T07:22:18.393Z,2.92
2019-05-09T07:25:10.818Z,2.72
2019-05-09T07:27:40.708Z,2.67
2019-05-09T07:30:31.815Z,2.85
2019-05-09T07:33:04.520Z,3.35
2019-05-09T07:35:38.013Z,3.60
2019-05-09T07:38:08.627Z,3.50
2019-05-09T07:40:39.620Z,4.37
2019-05-09T07:43:10.704Z,5.85
2019-05-09T07:45:43.173Z,6.10
2019-05-09T07:48:14.255Z,5.80
2019-05-09T07:50:45.222Z,5.70
2019-05-09T07:53:17.689Z,5.20
2019-05-09T07:55:48.457Z,4.60
2019-05-09T07:58:19.399Z,4.90
2019-05-09T08:00:50.273Z,4.30
2019-05-09T08:03:21.331Z,3.85
2019-05-09T08:05:52.288Z,4.08
2019-05-09T08:08:23.465Z,3.37
2019-05-09T08:10:54.322Z,3.15
2019-05-09T08:13:29.002Z,3.50
2019-05-09T08:15:59.706Z,5.35
2019-05-09T08:18:30.663Z,5.25
2019-05-09T08:21:01.524Z,6.30
2019-05-09T08:23:32.579Z,5.87
2019-05-09T08:26:04.621Z,9.95
2019-05-09T08:28:35.628Z,11.50
2019-05-09T08:31:08.319Z,11.22
2019-05-09T08:33:39.072Z,12.28
2019-05-09T08:36:09.950Z,9.55
2019-05-09T08:38:40.581Z,8.80
2019-05-09T08:54:45.082Z,13.08
2019-05-09T08:57:18.260Z,13.28
2019-05-09T08:59:50.747Z,12.53
2019-05-09T09:02:22.401Z,14.33
2019-05-09T09:04:53.274Z,14.35
2019-05-09T09:07:24.331Z,11.55
2019-05-09T09:09:57.645Z,10.72
2019-05-09T09:12:34.202Z,11.68
2019-05-09T09:15:01.117Z,11.85
2019-05-09T09:17:31.846Z,8.08
2019-05-09T09:20:02.906Z,10.45
2019-05-09T09:22:33.862Z,9.35
2019-05-09T09:25:07.725Z,9.93
2019-05-09T09:27:38.545Z,10.48
2019-05-09T09:30:20.362Z,10.00
2019-05-09T09:32:47.965Z,9.25
2019-05-09T09:35:18.882Z,8.13
2019-05-09T09:37:52.256Z,9.28
2019-05-09T09:40:22.536Z,9.00
2019-05-09T09:42:53.598Z,8.68
2019-05-09T09:45:24.560Z,9.33
2019-05-09T09:47:55.416Z,10.10
2019-05-09T10:04:32.289Z,12.85
2019-05-09T10:07:03.161Z,15.03
2019-05-09T10:09:34.207Z,19.50
2019-05-09T10:12:05.272Z,15.75
2019-05-09T10:14:41.446Z,18.70
2019-05-09T10:17:18.018Z,20.82
2019-05-09T10:19:51.735Z,19.60
2019-05-09T10:22:25.500Z,22.37
2019-05-09T10:24:58.563Z,27.22
2019-05-09T10:27:28.919Z,27.98
2019-05-09T10:29:59.979Z,20.17
2019-05-09T10:32:31.138Z,16.65
2019-05-09T10:35:02.015Z,15.83
2019-05-09T10:37:33.270Z,13.55
2019-05-09T10:40:05.139Z,13.75
2019-05-09T10:42:38.073Z,11.35
2019-05-09T10:45:27.503Z,11.05
2019-05-09T10:47:58.679Z,12.35
2019-05-09T10:50:34.100Z,12.35
2019-05-09T10:53:02.243Z,12.73
2019-05-09T10:55:33.391Z,17.77
2019-05-09T10:58:04.456Z,19.20
2019-05-09T11:00:39.215Z,24.70
2019-05-09T11:03:08.900Z,30.12
2019-05-09T11:05:39.786Z,36.75
2019-05-09T11:08:10.723Z,38.53
2019-05-09T11:10:41.990Z,36.15
2019-05-09T11:13:12.970Z,38.98
2019-05-09T11:15:44.257Z,35.38
2019-05-09T11:18:18.512Z,34.13
2019-05-09T11:20:49.728Z,25.50
2019-05-09T11:23:23.751Z,19.45
2019-05-09T11:25:57.957Z,7.17
2019-05-09T11:28:28.536Z,7.03
2019-05-09T11:30:59.594Z,7.42
2019-05-09T11:33:31.981Z,7.92
2019-05-09T11:36:03.043Z,7.70
2019-05-09T11:38:37.908Z,13.45
2019-05-09T11:41:08.323Z,8.03
2019-05-09T11:43:39.033Z,14.03
2019-05-09T11:46:10.578Z,12.65
2019-05-09T11:48:41.939Z,9.85
2019-05-09T11:51:12.558Z,10.95
2019-05-09T11:53:43.533Z,9.28
2019-05-09T11:56:14.614Z,10.13
2019-05-09T11:58:47.834Z,11.15
2019-05-09T12:01:19.080Z,10.80
2019-05-09T12:03:52.397Z,13.15
2019-05-09T12:06:23.016Z,13.45
2019-05-09T12:08:53.870Z,10.20
2019-05-09T12:11:25.238Z,10.98
2019-05-09T12:13:58.106Z,10.58
2019-05-09T12:16:28.705Z,10.35
2019-05-09T12:19:00.670Z,11.35
2019-05-09T12:21:31.646Z,17.92
2019-05-09T12:24:02.920Z,14.83
2019-05-09T12:26:33.859Z,17.57
2019-05-09T12:29:04.927Z,6.92
2019-05-09T12:31:38.400Z,6.80
2019-05-09T12:34:09.034Z,9.53
2019-05-09T12:36:40.243Z,8.68
2019-05-09T12:39:11.224Z,7.03
2019-05-09T12:41:42.465Z,6.17
2019-05-09T12:44:13.541Z,4.70
2019-05-09T12:46:44.501Z,3.87
2019-05-09T12:49:15.560Z,3.62
2019-05-09T12:51:46.521Z,4.53
2019-05-09T12:54:19.077Z,4.30
2019-05-09T12:56:53.953Z,4.10
2019-05-09T12:59:24.797Z,3.75
2019-05-09T13:01:58.067Z,4.50
2019-05-09T13:04:30.928Z,4.67
2019-05-09T13:07:02.073Z,4.75
2019-05-09T13:09:34.575Z,5.35
2019-05-09T13:12:05.746Z,6.70
2019-05-09T13:14:38.010Z,5.65
2019-05-09T13:17:10.303Z,5.25
2019-05-09T13:19:47.873Z,4.62
2019-05-09T13:22:18.680Z,4.12
2019-05-09T13:24:49.418Z,4.28
2019-05-09T13:27:20.495Z,5.40
2019-05-09T13:29:51.454Z,8.75
2019-05-09T13:32:22.602Z,12.88
2019-05-09T13:34:57.815Z,22.62
2019-05-09T13:37:30.507Z,40.58
2019-05-09T13:40:03.290Z,50.17
2019-05-09T13:42:34.122Z,58.02
2019-05-09T13:45:08.300Z,55.03
2019-05-09T13:47:39.425Z,55.05
2019-05-09T13:50:10.677Z,55.43
2019-05-09T13:52:41.315Z,59.75
2019-05-09T13:55:12.263Z,65.37
2019-05-09T13:57:42.924Z,64.05
2019-05-09T14:00:14.091Z,53.13
2019-05-09T14:02:45.339Z,52.45
2019-05-09T14:05:18.974Z,31.87
2019-05-09T14:07:53.457Z,21.30
2019-05-09T14:10:21.314Z,12.45
2019-05-09T14:13:05.878Z,6.47
2019-05-09T14:15:24.641Z,6.78
2019-05-09T14:17:58.106Z,7.37
2019-05-09T14:20:28.025Z,5.45
2019-05-09T14:22:59.068Z,5.60
2019-05-09T14:25:30.135Z,4.37
2019-05-09T14:28:01.189Z,4.33
2019-05-09T14:30:32.248Z,3.60
2019-05-09T14:33:03.215Z,2.80
2019-05-09T14:35:34.271Z,2.72
2019-05-09T14:38:04.939Z,2.60
2019-05-09T14:40:37.245Z,2.90
2019-05-09T14:43:09.791Z,2.83
2019-05-09T14:45:41.839Z,3.80
2019-05-09T14:48:13.200Z,3.17
2019-05-09T14:50:44.212Z,2.70
2019-05-09T14:53:15.170Z,3.00
2019-05-09T14:55:47.564Z,4.33
2019-05-09T14:58:18.418Z,5.55
2019-05-09T15:00:49.254Z,3.12
2019-05-09T15:03:20.131Z,9.23
2019-05-09T15:05:51.076Z,11.75
2019-05-09T15:08:22.029Z,8.98
2019-05-09T15:10:52.787Z,7.55
2019-05-09T15:13:23.845Z,7.20
2019-05-09T15:15:54.400Z,5.58
2019-05-09T15:18:25.351Z,6.87
2019-05-09T15:20:58.150Z,6.62
2019-05-09T15:23:29.307Z,8.03
2019-05-09T15:26:00.170Z,13.62
2019-05-09T15:28:31.129Z,6.83
2019-05-09T15:31:01.999Z,5.10
2019-05-09T15:33:33.423Z,5.10
2019-05-09T15:36:04.021Z,5.62
2019-05-09T15:38:35.186Z,5.53
2019-05-09T15:41:12.020Z,7.28
2019-05-09T15:43:38.275Z,5.03
2019-05-09T15:46:19.969Z,5.55
2019-05-09T15:48:50.998Z,4.03
2019-05-09T15:51:21.921Z,5.20
2019-05-09T15:53:53.107Z,2.62
2019-05-09T15:56:24.162Z,2.72
2019-05-09T15:58:57.836Z,3.98
2019-05-09T16:01:27.926Z,4.67
2019-05-09T16:03:58.861Z,4.22
2019-05-09T16:06:32.943Z,4.00
2019-05-09T16:09:02.435Z,4.35
2019-05-09T16:11:33.494Z,4.12
2019-05-09T16:14:04.716Z,4.22
2019-05-09T16:16:38.400Z,4.70
2019-05-09T16:19:09.102Z,5.78
2019-05-09T16:21:39.972Z,4.78
2019-05-09T16:24:10.930Z,4.15
2019-05-09T16:26:41.787Z,3.75
2019-05-09T16:29:12.862Z,3.95
2019-05-09T16:31:43.847Z,4.58
2019-05-09T16:34:14.779Z,4.95
2019-05-09T16:36:47.955Z,5.75
2019-05-09T16:39:19.049Z,5.47
2019-05-09T16:41:50.005Z,5.37
2019-05-09T16:44:21.056Z,10.32
2019-05-09T16:46:51.907Z,7.75
2019-05-09T16:49:26.043Z,5.78
2019-05-09T16:51:55.375Z,4.03
2019-05-09T16:54:29.501Z,3.98
2019-05-09T16:57:00.387Z,5.50
2019-05-09T16:59:31.420Z,5.90
2019-05-09T17:02:17.791Z,4.92
2019-05-09T17:04:34.669Z,4.87
2019-05-09T17:07:05.623Z,5.35
2019-05-09T17:09:39.449Z,4.95
2019-05-09T17:12:10.710Z,4.53
2019-05-09T17:14:41.753Z,5.17
2019-05-09T17:17:12.732Z,5.80
2019-05-09T17:19:43.587Z,4.33
2019-05-09T17:22:15.980Z,5.05
2019-05-09T17:24:49.187Z,6.75
2019-05-09T17:27:19.819Z,7.67
2019-05-09T17:29:50.793Z,6.15
2019-05-09T17:32:21.635Z,6.60
2019-05-09T17:34:52.713Z,7.62
2019-05-09T17:37:23.549Z,8.15
2019-05-09T17:39:54.407Z,9.63
2019-05-09T17:42:27.620Z,10.53
2019-05-09T17:44:57.977Z,8.68
2019-05-09T17:47:28.917Z,8.65
2019-05-09T17:49:59.897Z,9.40
2019-05-09T17:52:30.749Z,9.78
2019-05-09T17:55:01.810Z,6.97
2019-05-09T17:57:32.769Z,7.05
2019-05-09T18:00:07.988Z,7.12
2019-05-09T18:02:38.585Z,6.33
2019-05-09T18:05:09.428Z,5.60
2019-05-09T18:07:40.265Z,5.47
2019-05-09T18:10:11.604Z,4.75
2019-05-09T18:12:42.490Z,4.62
2019-05-09T18:15:13.744Z,5.22
2019-05-09T18:17:44.611Z,4.95
2019-05-09T18:20:17.713Z,4.92
2019-05-09T18:22:48.111Z,5.03
2019-05-09T18:25:19.244Z,4.40
2019-05-09T18:27:50.085Z,4.37
2019-05-09T18:30:21.448Z,4.83
2019-05-09T18:32:59.277Z,4.80
2019-05-09T18:35:31.366Z,4.87
2019-05-09T18:38:02.827Z,4.28
2019-05-09T18:40:33.888Z,4.17
2019-05-09T18:43:05.053Z,5.83
2019-05-09T18:45:37.539Z,6.35
2019-05-09T18:48:08.534Z,5.53
2019-05-09T18:50:39.564Z,4.20
2019-05-09T18:53:10.407Z,5.37
2019-05-09T18:55:41.993Z,5.25
2019-05-09T18:58:12.629Z,6.58
2019-05-09T19:00:43.599Z,5.30
2019-05-09T19:03:16.911Z,6.03
2019-05-09T19:05:47.749Z,5.72
2019-05-09T19:08:18.832Z,6.17
2019-05-09T19:10:52.247Z,4.90
2019-05-09T19:13:22.065Z,5.03
2019-05-09T19:15:58.611Z,6.35
2019-05-09T19:18:40.340Z,4.90
2019-05-09T19:21:16.048Z,5.58
2019-05-09T19:23:46.861Z,5.25
2019-05-09T19:26:36.039Z,6.75
2019-05-09T19:29:09.202Z,5.35
2019-05-09T19:31:40.514Z,4.90
2019-05-09T19:34:14.540Z,5.40
2019-05-09T19:36:45.582Z,4.30
2019-05-09T19:39:16.460Z,5.08
2019-05-09T19:41:47.312Z,4.75
2019-05-09T19:44:18.386Z,4.92
2019-05-09T19:46:49.109Z,5.20
2019-05-09T19:49:23.005Z,4.58
2019-05-09T19:51:55.079Z,5.10
2019-05-09T19:54:26.821Z,5.42
2019-05-09T19:57:00.647Z,4.70
2019-05-09T19:59:34.044Z,4.47
2019-05-09T20:02:05.628Z,4.95
2019-05-09T20:04:36.717Z,4.45
2019-05-09T20:07:08.459Z,3.58
2019-05-09T20:09:46.779Z,4.40
2019-05-09T20:12:19.265Z,4.10
2019-05-09T20:14:51.862Z,3.90
2019-05-09T20:17:22.923Z,4.78
2019-05-09T20:19:53.782Z,4.50
2019-05-09T20:22:25.425Z,4.50
2019-05-09T20:24:56.192Z,6.03
2019-05-09T20:27:27.295Z,8.45
2019-05-09T20:29:58.247Z,10.18
2019-05-09T20:32:29.293Z,14.73
2019-05-09T20:35:00.228Z,17.67
2019-05-09T20:37:31.616Z,18.30
2019-05-09T20:40:03.187Z,19.02
2019-05-09T20:42:34.908Z,17.67
2019-05-09T20:45:07.460Z,20.85
2019-05-09T20:47:38.298Z,14.47
2019-05-09T20:50:09.666Z,14.30
2019-05-09T20:52:40.962Z,13.22
2019-05-09T20:55:13.437Z,13.22
2019-05-09T20:57:44.275Z,11.00
2019-05-09T21:00:16.013Z,9.80
2019-05-09T21:02:46.928Z,8.58
2019-05-09T21:05:18.202Z,7.80
2019-05-09T21:07:49.353Z,7.78
2019-05-09T21:10:20.629Z,6.47
2019-05-09T21:12:51.985Z,5.97
2019-05-09T21:15:23.166Z,6.20
2019-05-09T21:17:54.312Z,6.35
2019-05-09T21:20:25.594Z,6.37
2019-05-09T21:22:56.580Z,6.50
2019-05-09T21:25:27.688Z,6.42
2019-05-09T21:27:58.773Z,6.85
2019-05-09T21:30:30.045Z,6.03
2019-05-09T21:33:01.109Z,6.42
2019-05-09T21:35:32.250Z,6.37
2019-05-09T21:38:02.898Z,5.62
2019-05-09T21:40:34.677Z,6.25
2019-05-09T21:43:05.532Z,6.53
2019-05-09T21:45:36.472Z,6.30
2019-05-09T21:48:07.535Z,6.00
2019-05-09T21:50:38.492Z,5.53
2019-05-09T21:53:09.467Z,4.92
2019-05-09T21:55:40.307Z,4.78
2019-05-09T21:58:11.382Z,5.03
2019-05-09T22:00:44.881Z,4.97
2019-05-09T22:03:15.553Z,4.78
2019-05-09T22:05:46.509Z,4.60
2019-05-09T22:08:17.569Z,5.53
2019-05-09T22:10:48.935Z,6.03
2019-05-09T22:13:19.983Z,5.40
2019-05-09T22:15:50.833Z,4.87
2019-05-09T22:18:21.913Z,4.67
2019-05-09T22:20:52.872Z,4.85
2019-05-09T22:23:23.731Z,5.40
2019-05-09T22:25:54.790Z,5.37
2019-05-09T22:28:25.729Z,5.67
2019-05-09T22:30:56.807Z,5.47
2019-05-09T22:33:27.767Z,6.37
2019-05-09T22:35:58.605Z,6.53
2019-05-09T22:38:29.685Z,6.22
2019-05-09T22:41:01.561Z,6.20
2019-05-09T22:43:32.499Z,6.62
2019-05-09T22:46:03.591Z,6.33
2019-05-09T22:48:34.639Z,5.40
2019-05-09T22:51:05.393Z,6.10
2019-05-09T22:53:36.351Z,6.55
2019-05-09T22:56:07.189Z,6.05
2019-05-09T22:58:38.063Z,5.65
2019-05-09T23:01:09.106Z,6.55
2019-05-09T23:03:40.088Z,6.05
2019-05-09T23:06:10.951Z,5.85
2019-05-09T23:08:41.999Z,5.10
2019-05-09T23:11:12.836Z,5.00
2019-05-09T23:13:53.011Z,5.53
2019-05-09T23:16:28.565Z,6.12
2019-05-09T23:18:59.528Z,4.97
2019-05-09T23:21:30.702Z,4.67
2019-05-09T23:24:09.209Z,5.08
2019-05-09T23:26:40.288Z,4.37
2019-05-09T23:29:11.233Z,4.70
2019-05-09T23:31:49.943Z,4.60
2019-05-09T23:34:21.023Z,4.90
2019-05-09T23:36:51.895Z,4.60
2019-05-09T23:39:24.478Z,4.00
2019-05-09T23:41:55.330Z,4.20
2019-05-09T23:44:26.202Z,4.05
2019-05-09T23:46:57.145Z,3.92
2019-05-09T23:49:28.103Z,5.00
2019-05-09T23:51:59.163Z,4.03
2019-05-09T23:54:48.422Z,4.72
2019-05-09T23:57:37.402Z,4.25
